Zahedan Airport

Airport
ICAO code: 
OITZ
IATA Code: 
ZAH
Summary
ICAO Region: 
MID
Territory: 
Location: 
Zahedan, Sistan and Baluchistan Province
Serving: 
Zahedan
Elevation: 
4564 ft
Coordinates: 
Aerial View: 
29° 28' 32.421" N, 60° 54' 2.269" E
Metar
Observation
OITZ 260800Z 19012G25KT 8000 SCT035 33/M01 Q1008 A2978
Station
Zanjan
Date/Time
2022-06-26 08:00:00
Wind direction
190°
Wind speed
12 kts
Lowest cloud amount
scattered clouds
Temperature
33°C
Dew point
-1°C
Humidity
11%
QNH
1008 hPa
Weather condition
n/a

Airport on the eastern side of the city of Zahedan, Iran, close to the Afghan border.

Climatology

Hot Desert climate (Köppen climate classification BWh). Hot summers and cool winters.

Runways

Designator Length Width Surface Rops
12/30 2999 45 ASP No/No
Airport map: 
Aerial View: 

SKYbrary Partners:

Safety knowledge contributed by: